sensor_id;sensor_type;location;lat;lon;timestamp;pressure;altitude;pressure_sealevel;temperature;humidity
46347;BME280;32057;47.830;19.046;2023-05-07T00:00:20;100215.53;;;12.12;100.00
46347;BME280;32057;47.830;19.046;2023-05-07T00:02:46;100209.50;;;12.20;100.00
46347;BME280;32057;47.830;19.046;2023-05-07T00:05:12;100213.00;;;12.19;100.00
46347;BME280;32057;47.830;19.046;2023-05-07T00:07:37;100214.78;;;12.26;100.00
46347;BME280;32057;47.830;19.046;2023-05-07T00:10:04;100210.38;;;12.19;100.00
46347;BME280;32057;47.830;19.046;2023-05-07T00:12:31;100206.88;;;12.18;100.00
46347;BME280;32057;47.830;19.046;2023-05-07T00:14:58;100216.56;;;12.27;100.00
46347;BME280;32057;47.830;19.046;2023-05-07T00:17:24;100213.06;;;12.28;100.00
46347;BME280;32057;47.830;19.046;2023-05-07T00:19:49;100216.56;;;12.27;100.00
46347;BME280;32057;47.830;19.046;2023-05-07T00:22:15;100211.38;;;12.31;100.00
46347;BME280;32057;47.830;19.046;2023-05-07T00:24:40;100213.16;;;12.34;100.00
46347;BME280;32057;47.830;19.046;2023-05-07T00:27:05;100213.16;;;12.34;100.00
46347;BME280;32057;47.830;19.046;2023-05-07T00:29:31;100218.34;;;12.31;100.00
46347;BME280;32057;47.830;19.046;2023-05-07T00:31:56;100220.91;;;12.28;100.00
46347;BME280;32057;47.830;19.046;2023-05-07T00:34:22;100225.25;;;12.24;100.00
46347;BME280;32057;47.830;19.046;2023-05-07T00:36:47;100226.13;;;12.28;100.00
46347;BME280;32057;47.830;19.046;2023-05-07T00:39:13;100227.84;;;12.24;100.00
46347;BME280;32057;47.830;19.046;2023-05-07T00:41:38;100224.34;;;12.22;100.00
46347;BME280;32057;47.830;19.046;2023-05-07T00:44:04;100215.63;;;12.20;100.00
46347;BME280;32057;47.830;19.046;2023-05-07T00:46:30;100226.13;;;12.26;100.00
46347;BME280;32057;47.830;19.046;2023-05-07T00:48:56;100218.34;;;12.31;100.00
46347;BME280;32057;47.830;19.046;2023-05-07T00:51:23;100223.50;;;12.28;100.00
46347;BME280;32057;47.830;19.046;2023-05-07T00:53:50;100224.34;;;12.22;100.00
46347;BME280;32057;47.830;19.046;2023-05-07T00:56:15;100231.25;;;12.19;100.00
46347;BME280;32057;47.830;19.046;2023-05-07T00:58:41;100223.44;;;12.19;100.00
46347;BME280;32057;47.830;19.046;2023-05-07T01:01:07;100227.69;;;12.10;100.00
46347;BME280;32057;47.830;19.046;2023-05-07T01:03:33;100218.97;;;12.08;100.00
46347;BME280;32057;47.830;19.046;2023-05-07T01:05:59;100222.44;;;12.09;100.00
46347;BME280;32057;47.830;19.046;2023-05-07T01:08:28;100222.34;;;12.03;100.00
46347;BME280;32057;47.830;19.046;2023-05-07T01:10:55;100222.38;;;12.04;100.00
46347;BME280;32057;47.830;19.046;2023-05-07T01:13:22;100219.84;;;12.10;100.00
46347;BME280;32057;47.830;19.046;2023-05-07T01:15:48;100224.25;;;12.18;100.00
46347;BME280;32057;47.830;19.046;2023-05-07T01:18:13;100234.78;;;12.22;100.00
46347;BME280;32057;47.830;19.046;2023-05-07T01:20:40;100232.09;;;12.18;100.00
46347;BME280;32057;47.830;19.046;2023-05-07T01:23:06;100239.09;;;12.22;100.00
46347;BME280;32057;47.830;19.046;2023-05-07T01:25:32;100230.44;;;12.24;100.00
46347;BME280;32057;47.830;19.046;2023-05-07T01:27:58;100230.38;;;12.20;100.00
46347;BME280;32057;47.830;19.046;2023-05-07T01:30:26;100226.72;;;12.05;100.00
46347;BME280;32057;47.830;19.046;2023-05-07T01:35:26;100227.59;;;12.06;100.00
46347;BME280;32057;47.830;19.046;2023-05-07T01:37:52;100227.66;;;12.12;100.00
46347;BME280;32057;47.830;19.046;2023-05-07T01:40:18;100233.81;;;12.15;100.00
46347;BME280;32057;47.830;19.046;2023-05-07T01:42:45;100223.34;;;12.14;100.00
46347;BME280;32057;47.830;19.046;2023-05-07T01:45:11;100232.13;;;12.19;100.00
46347;BME280;32057;47.830;19.046;2023-05-07T01:47:37;100226.84;;;12.14;100.00
46347;BME280;32057;47.830;19.046;2023-05-07T01:50:05;100234.53;;;12.02;100.00
46347;BME280;32057;47.830;19.046;2023-05-07T01:52:31;100221.38;;;11.96;100.00
46347;BME280;32057;47.830;19.046;2023-05-07T01:54:56;100212.66;;;11.91;100.00
46347;BME280;32057;47.830;19.046;2023-05-07T01:57:22;100219.47;;;11.83;100.00
46347;BME280;32057;47.830;19.046;2023-05-07T01:59:47;100219.38;;;11.76;100.00
46347;BME280;32057;47.830;19.046;2023-05-07T02:02:13;100222.09;;;11.84;100.00
46347;BME280;32057;47.830;19.046;2023-05-07T02:04:38;100223.09;;;11.92;100.00
46347;BME280;32057;47.830;19.046;2023-05-07T02:07:04;100215.25;;;11.91;100.00
46347;BME280;32057;47.830;19.046;2023-05-07T02:09:29;100210.78;;;11.82;100.00
46347;BME280;32057;47.830;19.046;2023-05-07T02:11:55;100222.97;;;11.88;100.00
46347;BME280;32057;47.830;19.046;2023-05-07T02:14:20;100225.72;;;11.92;100.00
46347;BME280;32057;47.830;19.046;2023-05-07T02:16:46;100224.00;;;11.94;100.00
46347;BME280;32057;47.830;19.046;2023-05-07T02:19:11;100223.16;;;11.97;100.00
46347;BME280;32057;47.830;19.046;2023-05-07T02:21:36;100220.50;;;11.95;100.00
46347;BME280;32057;47.830;19.046;2023-05-07T02:24:02;100217.84;;;11.91;100.00
46347;BME280;32057;47.830;19.046;2023-05-07T02:26:27;100217.00;;;11.90;100.00
46347;BME280;32057;47.830;19.046;2023-05-07T02:28:53;100217.88;;;11.92;100.00
46347;BME280;32057;47.830;19.046;2023-05-07T02:31:19;100214.28;;;11.86;100.00
46347;BME280;32057;47.830;19.046;2023-05-07T02:33:44;100207.19;;;11.75;100.00
46347;BME280;32057;47.830;19.046;2023-05-07T02:36:11;100213.41;;;11.85;100.00
46347;BME280;32057;47.830;19.046;2023-05-07T02:38:37;100212.66;;;11.91;100.00
46347;BME280;32057;47.830;19.046;2023-05-07T02:41:03;100217.06;;;11.98;100.00
46347;BME280;32057;47.830;19.046;2023-05-07T02:43:28;100210.13;;;11.99;100.00
46347;BME280;32057;47.830;19.046;2023-05-07T02:46:01;100205.75;;;11.96;100.00
46347;BME280;32057;47.830;19.046;2023-05-07T02:48:27;100209.16;;;11.92;100.00
46347;BME280;32057;47.830;19.046;2023-05-07T02:50:53;100216.16;;;11.96;100.00
46347;BME280;32057;47.830;19.046;2023-05-07T02:53:18;100210.94;;;11.93;100.00
46347;BME280;32057;47.830;19.046;2023-05-07T02:55:43;100213.47;;;11.90;100.00
46347;BME280;32057;47.830;19.046;2023-05-07T02:58:09;100211.81;;;11.93;100.00
46347;BME280;32057;47.830;19.046;2023-05-07T03:00:34;100215.31;;;11.95;100.00
46347;BME280;32057;47.830;19.046;2023-05-07T03:03:00;100209.25;;;11.98;100.00
46347;BME280;32057;47.830;19.046;2023-05-07T03:05:25;100219.66;;;11.98;100.00
46347;BME280;32057;47.830;19.046;2023-05-07T03:07:51;100217.94;;;11.97;100.00
46347;BME280;32057;47.830;19.046;2023-05-07T03:10:16;100214.44;;;11.95;100.00
46347;BME280;32057;47.830;19.046;2023-05-07T03:12:42;100222.97;;;11.88;100.00
46347;BME280;32057;47.830;19.046;2023-05-07T03:15:07;100216.91;;;11.87;100.00
46347;BME280;32057;47.830;19.046;2023-05-07T03:17:33;100222.97;;;11.85;100.00
46347;BME280;32057;47.830;19.046;2023-05-07T03:19:59;100227.25;;;11.81;100.00
46347;BME280;32057;47.830;19.046;2023-05-07T03:22:24;100222.06;;;11.83;100.00
46347;BME280;32057;47.830;19.046;2023-05-07T03:24:49;100222.03;;;11.81;100.00
46347;BME280;32057;47.830;19.046;2023-05-07T03:27:15;100228.94;;;11.77;100.00
46347;BME280;32057;47.830;19.046;2023-05-07T03:29:40;100222.03;;;11.81;100.00
46347;BME280;32057;47.830;19.046;2023-05-07T03:32:06;100228.22;;;11.86;100.00
46347;BME280;32057;47.830;19.046;2023-05-07T03:34:31;100230.06;;;11.95;100.00
46347;BME280;32057;47.830;19.046;2023-05-07T03:36:57;100235.31;;;11.97;100.00
46347;BME280;32057;47.830;19.046;2023-05-07T03:39:22;100230.81;;;11.86;100.00
46347;BME280;32057;47.830;19.046;2023-05-07T03:41:48;100233.41;;;11.88;100.00
46347;BME280;32057;47.830;19.046;2023-05-07T03:44:13;100233.25;;;11.75;100.00
46347;BME280;32057;47.830;19.046;2023-05-07T03:46:38;100227.22;;;11.80;100.00
46347;BME280;32057;47.830;19.046;2023-05-07T03:49:04;100232.47;;;11.81;100.00
46347;BME280;32057;47.830;19.046;2023-05-07T03:51:30;100243.94;;;11.91;100.00
46347;BME280;32057;47.830;19.046;2023-05-07T03:53:55;100240.50;;;11.95;100.00
46347;BME280;32057;47.830;19.046;2023-05-07T03:56:22;100241.41;;;11.97;100.00
46347;BME280;32057;47.830;19.046;2023-05-07T03:58:48;100242.22;;;11.93;100.00
46347;BME280;32057;47.830;19.046;2023-05-07T04:01:13;100238.75;;;11.94;100.00
46347;BME280;32057;47.830;19.046;2023-05-07T04:03:39;100244.66;;;11.84;100.00
46347;BME280;32057;47.830;19.046;2023-05-07T04:06:04;100235.03;;;11.76;100.00
46347;BME280;32057;47.830;19.046;2023-05-07T04:08:30;100235.97;;;11.83;100.00
46347;BME280;32057;47.830;19.046;2023-05-07T04:10:59;100240.44;;;11.89;100.00
46347;BME280;32057;47.830;19.046;2023-05-07T04:13:25;100241.22;;;11.88;100.00
46347;BME280;32057;47.830;19.046;2023-05-07T04:15:51;100242.94;;;11.86;100.00
46347;BME280;32057;47.830;19.046;2023-05-07T04:18:17;100247.25;;;11.84;100.00
46347;BME280;32057;47.830;19.046;2023-05-07T04:20:42;100244.81;;;11.91;100.00
46347;BME280;32057;47.830;19.046;2023-05-07T04:23:08;100244.84;;;11.93;100.00
46347;BME280;32057;47.830;19.046;2023-05-07T04:25:34;100246.66;;;11.99;100.00
46347;BME280;32057;47.830;19.046;2023-05-07T04:27:59;100249.31;;;12.03;100.00
46347;BME280;32057;47.830;19.046;2023-05-07T04:30:25;100249.31;;;12.03;100.00
46347;BME280;32057;47.830;19.046;2023-05-07T04:32:51;100250.31;;;12.13;100.00
46347;BME280;32057;47.830;19.046;2023-05-07T04:35:17;100251.25;;;12.20;100.00
46347;BME280;32057;47.830;19.046;2023-05-07T04:37:42;100248.72;;;12.24;100.00
46347;BME280;32057;47.830;19.046;2023-05-07T04:40:08;100257.47;;;12.29;100.00
46347;BME280;32057;47.830;19.046;2023-05-07T04:42:33;100258.38;;;12.33;100.00
46347;BME280;32057;47.830;19.046;2023-05-07T04:44:59;100256.66;;;12.35;100.00
46347;BME280;32057;47.830;19.046;2023-05-07T04:47:25;100269.72;;;12.37;100.00
46347;BME280;32057;47.830;19.046;2023-05-07T04:49:50;100263.72;;;12.42;100.00
46347;BME280;32057;47.830;19.046;2023-05-07T04:52:16;100272.50;;;12.50;100.00
46347;BME280;32057;47.830;19.046;2023-05-07T04:54:42;100270.88;;;12.60;100.00
46347;BME280;32057;47.830;19.046;2023-05-07T04:57:07;100269.22;;;12.70;100.00
46347;BME280;32057;47.830;19.046;2023-05-07T04:59:33;100265.84;;;12.82;100.00
46347;BME280;32057;47.830;19.046;2023-05-07T05:01:58;100267.78;;;13.00;100.00
46347;BME280;32057;47.830;19.046;2023-05-07T05:04:24;100264.50;;;13.22;100.00
46347;BME280;32057;47.830;19.046;2023-05-07T05:06:49;100268.16;;;13.37;100.00
46347;BME280;32057;47.830;19.046;2023-05-07T05:09:15;100265.56;;;13.38;100.00
46347;BME280;32057;47.830;19.046;2023-05-07T05:11:41;100263.81;;;13.42;100.00
46347;BME280;32057;47.830;19.046;2023-05-07T05:14:06;100269.06;;;13.40;100.00
46347;BME280;32057;47.830;19.046;2023-05-07T05:16:32;100277.81;;;13.50;100.00
46347;BME280;32057;47.830;19.046;2023-05-07T05:18:58;100283.09;;;13.54;100.00
46347;BME280;32057;47.830;19.046;2023-05-07T05:21:23;100277.84;;;13.53;100.00
46347;BME280;32057;47.830;19.046;2023-05-07T05:23:49;100277.81;;;13.51;100.00
46347;BME280;32057;47.830;19.046;2023-05-07T05:26:14;100280.47;;;13.53;100.00
46347;BME280;32057;47.830;19.046;2023-05-07T05:28:40;100277.00;;;13.54;100.00
46347;BME280;32057;47.830;19.046;2023-05-07T05:31:05;100280.50;;;13.58;100.00
46347;BME280;32057;47.830;19.046;2023-05-07T05:33:31;100278.78;;;13.61;100.00
46347;BME280;32057;47.830;19.046;2023-05-07T05:35:56;100277.09;;;13.66;100.00
46347;BME280;32057;47.830;19.046;2023-05-07T05:38:21;100271.94;;;13.82;100.00
46347;BME280;32057;47.830;19.046;2023-05-07T05:40:47;100270.31;;;14.05;100.00
46347;BME280;32057;47.830;19.046;2023-05-07T05:43:13;100275.69;;;14.31;100.00
46347;BME280;32057;47.830;19.046;2023-05-07T05:45:39;100285.44;;;14.60;100.00
46347;BME280;32057;47.830;19.046;2023-05-07T05:48:05;100276.75;;;14.77;100.00
46347;BME280;32057;47.830;19.046;2023-05-07T05:50:31;100273.31;;;15.02;100.00
46347;BME280;32057;47.830;19.046;2023-05-07T05:52:56;100282.94;;;15.20;100.00
46347;BME280;32057;47.830;19.046;2023-05-07T05:55:22;100269.81;;;15.28;100.00
46347;BME280;32057;47.830;19.046;2023-05-07T05:57:48;100271.56;;;15.57;100.00
46347;BME280;32057;47.830;19.046;2023-05-07T06:00:15;100268.91;;;15.83;100.00
46347;BME280;32057;47.830;19.046;2023-05-07T06:02:41;100272.41;;;15.88;100.00
46347;BME280;32057;47.830;19.046;2023-05-07T06:05:08;100267.09;;;16.16;100.00
46347;BME280;32057;47.830;19.046;2023-05-07T06:07:33;100262.63;;;16.38;100.00
46347;BME280;32057;47.830;19.046;2023-05-07T06:10:00;100262.56;;;16.51;100.00
46347;BME280;32057;47.830;19.046;2023-05-07T06:12:25;100261.56;;;16.74;100.00
46347;BME280;32057;47.830;19.046;2023-05-07T06:14:50;100259.75;;;16.85;100.00
46347;BME280;32057;47.830;19.046;2023-05-07T06:17:16;100254.34;;;17.07;100.00
46347;BME280;32057;47.830;19.046;2023-05-07T06:19:41;100255.09;;;17.26;100.00
46347;BME280;32057;47.830;19.046;2023-05-07T06:22:07;100249.63;;;17.47;100.00
46347;BME280;32057;47.830;19.046;2023-05-07T06:24:32;100254.16;;;17.31;100.00
46347;BME280;32057;47.830;19.046;2023-05-07T06:26:57;100250.69;;;17.23;100.00
46347;BME280;32057;47.830;19.046;2023-05-07T06:29:24;100253.53;;;17.02;100.00
46347;BME280;32057;47.830;19.046;2023-05-07T06:31:52;100256.81;;;17.28;100.00
46347;BME280;32057;47.830;19.046;2023-05-07T06:34:17;100250.81;;;17.11;100.00
46347;BME280;32057;47.830;19.046;2023-05-07T06:36:43;100251.44;;;17.39;100.00
46347;BME280;32057;47.830;19.046;2023-05-07T06:39:08;100244.22;;;17.61;100.00
46347;BME280;32057;47.830;19.046;2023-05-07T06:41:34;100253.56;;;17.96;100.00
46347;BME280;32057;47.830;19.046;2023-05-07T06:44:01;100251.47;;;18.23;100.00
46347;BME280;32057;47.830;19.046;2023-05-07T06:46:27;100257.34;;;18.45;100.00
46347;BME280;32057;47.830;19.046;2023-05-07T06:48:53;100258.00;;;18.61;100.00
46347;BME280;32057;47.830;19.046;2023-05-07T06:51:18;100253.41;;;18.75;100.00
46347;BME280;32057;47.830;19.046;2023-05-07T06:53:44;100254.06;;;18.93;100.00
46347;BME280;32057;47.830;19.046;2023-05-07T06:56:28;100254.75;;;19.05;100.00
46347;BME280;32057;47.830;19.046;2023-05-07T06:59:14;100251.69;;;19.32;100.00
46347;BME280;32057;47.830;19.046;2023-05-07T07:01:39;100258.88;;;19.23;100.00
46347;BME280;32057;47.830;19.046;2023-05-07T07:04:05;100259.53;;;19.36;100.00
46347;BME280;32057;47.830;19.046;2023-05-07T07:06:31;100256.63;;;19.53;100.00
46347;BME280;32057;47.830;19.046;2023-05-07T07:08:57;100254.31;;;19.33;100.00
46347;BME280;32057;47.830;19.046;2023-05-07T07:11:23;100257.72;;;19.40;100.00
46347;BME280;32057;47.830;19.046;2023-05-07T07:13:48;100260.34;;;19.40;100.00
46347;BME280;32057;47.830;19.046;2023-05-07T07:16:13;100253.28;;;19.42;100.00
46347;BME280;32057;47.830;19.046;2023-05-07T07:18:39;100258.94;;;19.70;100.00
46347;BME280;32057;47.830;19.046;2023-05-07T07:21:05;100253.53;;;19.79;100.00
46347;BME280;32057;47.830;19.046;2023-05-07T07:23:30;100268.06;;;20.00;100.00
46347;BME280;32057;47.830;19.046;2023-05-07T07:25:56;100261.84;;;20.04;98.20
46347;BME280;32057;47.830;19.046;2023-05-07T07:28:21;100269.38;;;20.23;100.00
46347;BME280;32057;47.830;19.046;2023-05-07T07:30:47;100264.72;;;20.37;99.66
46347;BME280;32057;47.830;19.046;2023-05-07T07:33:12;100267.22;;;20.43;98.59
46347;BME280;32057;47.830;19.046;2023-05-07T07:35:38;100255.66;;;20.49;98.93
46347;BME280;32057;47.830;19.046;2023-05-07T07:38:03;100259.03;;;20.54;98.69
46347;BME280;32057;47.830;19.046;2023-05-07T07:40:29;100259.34;;;20.39;96.11
46347;BME280;32057;47.830;19.046;2023-05-07T07:42:56;100265.41;;;20.45;94.23
46347;BME280;32057;47.830;19.046;2023-05-07T07:45:22;100266.16;;;20.50;94.57
46347;BME280;32057;47.830;19.046;2023-05-07T07:47:47;100258.22;;;20.50;95.16
46347;BME280;32057;47.830;19.046;2023-05-07T07:50:13;100262.13;;;20.75;91.79
46347;BME280;32057;47.830;19.046;2023-05-07T07:52:39;100257.22;;;20.97;92.90
46347;BME280;32057;47.830;19.046;2023-05-07T07:55:08;100268.38;;;21.11;91.17
46347;BME280;32057;47.830;19.046;2023-05-07T07:57:34;100263.91;;;21.13;90.87
46347;BME280;32057;47.830;19.046;2023-05-07T08:00:01;100262.03;;;21.17;91.89
46347;BME280;32057;47.830;19.046;2023-05-07T08:02:26;100260.09;;;20.87;91.06
46347;BME280;32057;47.830;19.046;2023-05-07T08:04:52;100264.91;;;20.70;89.99
46347;BME280;32057;47.830;19.046;2023-05-07T08:07:17;100262.06;;;20.79;90.98
46347;BME280;32057;47.830;19.046;2023-05-07T08:09:46;100261.06;;;20.83;90.06
46347;BME280;32057;47.830;19.046;2023-05-07T08:12:11;100267.91;;;20.92;87.38
46347;BME280;32057;47.830;19.046;2023-05-07T08:14:37;100269.25;;;21.10;90.92
46347;BME280;32057;47.830;19.046;2023-05-07T08:17:02;100262.47;;;21.36;93.08
46347;BME280;32057;47.830;19.046;2023-05-07T08:19:28;100261.53;;;21.37;84.24
46347;BME280;32057;47.830;19.046;2023-05-07T08:21:53;100254.72;;;21.28;82.82
46347;BME280;32057;47.830;19.046;2023-05-07T08:24:18;100263.66;;;21.22;81.44
46347;BME280;32057;47.830;19.046;2023-05-07T08:26:44;100268.47;;;21.44;83.81
46347;BME280;32057;47.830;19.046;2023-05-07T08:29:10;100265.13;;;21.70;88.25
46347;BME280;32057;47.830;19.046;2023-05-07T08:31:35;100261.94;;;21.90;85.23
46347;BME280;32057;47.830;19.046;2023-05-07T08:34:01;100265.22;;;22.00;81.70
46347;BME280;32057;47.830;19.046;2023-05-07T08:36:26;100261.38;;;22.10;83.39
46347;BME280;32057;47.830;19.046;2023-05-07T08:38:53;100266.72;;;22.08;80.54
46347;BME280;32057;47.830;19.046;2023-05-07T08:41:20;100263.41;;;22.00;83.71
46347;BME280;32057;47.830;19.046;2023-05-07T08:43:49;100269.94;;;22.20;82.01
46347;BME280;32057;47.830;19.046;2023-05-07T08:46:21;100263.13;;;22.42;85.21
46347;BME280;32057;47.830;19.046;2023-05-07T08:48:50;100260.59;;;22.39;81.88
46347;BME280;32057;47.830;19.046;2023-05-07T08:51:18;100259.94;;;22.61;84.94
46347;BME280;32057;47.830;19.046;2023-05-07T08:53:46;100259.44;;;22.76;82.39
46347;BME280;32057;47.830;19.046;2023-05-07T08:56:14;100259.38;;;22.79;79.32
46347;BME280;32057;47.830;19.046;2023-05-07T08:58:41;100260.78;;;22.63;74.63
46347;BME280;32057;47.830;19.046;2023-05-07T09:01:13;100262.19;;;22.75;75.39
46347;BME280;32057;47.830;19.046;2023-05-07T09:03:39;100255.84;;;22.79;75.83
46347;BME280;32057;47.830;19.046;2023-05-07T09:06:05;100267.94;;;22.59;72.65
46347;BME280;32057;47.830;19.046;2023-05-07T09:08:33;100259.63;;;22.42;73.94
46347;BME280;32057;47.830;19.046;2023-05-07T09:10:59;100262.94;;;22.48;74.75
46347;BME280;32057;47.830;19.046;2023-05-07T09:13:25;100262.59;;;22.31;73.53
46347;BME280;32057;47.830;19.046;2023-05-07T09:15:50;100257.28;;;22.31;74.77
46347;BME280;32057;47.830;19.046;2023-05-07T09:18:16;100258.66;;;22.44;76.92
46347;BME280;32057;47.830;19.046;2023-05-07T09:20:41;100261.59;;;22.35;74.18
46347;BME280;32057;47.830;19.046;2023-05-07T09:23:07;100261.22;;;22.47;78.77
46347;BME280;32057;47.830;19.046;2023-05-07T09:25:34;100261.91;;;22.54;76.65
46347;BME280;32057;47.830;19.046;2023-05-07T09:28:02;100256.94;;;22.43;71.48
46347;BME280;32057;47.830;19.046;2023-05-07T09:30:29;100251.56;;;22.75;76.72
46347;BME280;32057;47.830;19.046;2023-05-07T09:32:56;100254.78;;;22.84;72.89
46347;BME280;32057;47.830;19.046;2023-05-07T09:35:21;100251.41;;;22.79;69.85
46347;BME280;32057;47.830;19.046;2023-05-07T09:37:49;100245.31;;;23.05;75.53
46347;BME280;32057;47.830;19.046;2023-05-07T09:40:22;100244.03;;;22.89;65.84
46347;BME280;32057;47.830;19.046;2023-05-07T09:42:49;100251.50;;;22.76;67.07
46347;BME280;32057;47.830;19.046;2023-05-07T09:45:16;100247.94;;;22.77;71.39
46347;BME280;32057;47.830;19.046;2023-05-07T09:47:42;100246.16;;;23.06;73.00
46347;BME280;32057;47.830;19.046;2023-05-07T09:50:10;100239.53;;;23.19;66.70
46347;BME280;32057;47.830;19.046;2023-05-07T09:52:39;100243.41;;;23.09;68.87
46347;BME280;32057;47.830;19.046;2023-05-07T09:55:06;100237.19;;;23.10;68.91
46347;BME280;32057;47.830;19.046;2023-05-07T09:57:32;100233.28;;;23.20;67.94
46347;BME280;32057;47.830;19.046;2023-05-07T09:59:59;100238.34;;;23.28;70.14
46347;BME280;32057;47.830;19.046;2023-05-07T10:02:30;100238.97;;;23.36;72.18
46347;BME280;32057;47.830;19.046;2023-05-07T10:04:56;100238.56;;;23.49;70.09
46347;BME280;32057;47.830;19.046;2023-05-07T10:07:22;100229.78;;;23.72;68.75
46347;BME280;32057;47.830;19.046;2023-05-07T10:09:48;100228.38;;;23.61;68.69
46347;BME280;32057;47.830;19.046;2023-05-07T10:12:13;100233.44;;;23.42;65.65
46347;BME280;32057;47.830;19.046;2023-05-07T10:14:40;100230.16;;;23.09;65.65
46347;BME280;32057;47.830;19.046;2023-05-07T10:17:05;100232.72;;;22.82;65.19
46347;BME280;32057;47.830;19.046;2023-05-07T10:19:32;100249.88;;;22.42;65.42
46347;BME280;32057;47.830;19.046;2023-05-07T10:22:04;100245.28;;;22.18;67.26
46347;BME280;32057;47.830;19.046;2023-05-07T10:24:32;100244.25;;;21.91;64.84
46347;BME280;32057;47.830;19.046;2023-05-07T10:27:00;100241.53;;;21.94;65.60
46347;BME280;32057;47.830;19.046;2023-05-07T10:34:42;100218.66;;;22.80;54.68
46347;BME280;32057;47.830;19.046;2023-05-07T10:37:09;100230.16;;;22.53;57.39
46347;BME280;32057;47.830;19.046;2023-05-07T10:39:35;100233.44;;;21.98;57.87
46347;BME280;32057;47.830;19.046;2023-05-07T10:42:11;100225.19;;;22.40;57.64
46347;BME280;32057;47.830;19.046;2023-05-07T10:44:37;100227.03;;;22.07;61.56
46347;BME280;32057;47.830;19.046;2023-05-07T10:47:10;100227.63;;;21.85;61.96
46347;BME280;32057;47.830;19.046;2023-05-07T10:52:18;100230.91;;;21.62;60.50
46347;BME280;32057;47.830;19.046;2023-05-07T10:54:45;100225.56;;;21.64;66.71
46347;BME280;32057;47.830;19.046;2023-05-07T10:57:32;100227.16;;;22.02;61.58
46347;BME280;32057;47.830;19.046;2023-05-07T10:59:58;100229.22;;;22.22;59.06
46347;BME280;32057;47.830;19.046;2023-05-07T11:05:23;100222.44;;;23.00;52.39
46347;BME280;32057;47.830;19.046;2023-05-07T11:07:57;100220.78;;;22.97;52.76
46347;BME280;32057;47.830;19.046;2023-05-07T11:10:23;100223.09;;;23.08;51.71
46347;BME280;32057;47.830;19.046;2023-05-07T11:12:50;100226.16;;;23.22;52.57
46347;BME280;32057;47.830;19.046;2023-05-07T11:15:34;100224.41;;;22.95;51.80
46347;BME280;32057;47.830;19.046;2023-05-07T11:18:00;100225.91;;;23.03;52.70
46347;BME280;32057;47.830;19.046;2023-05-07T11:20:45;100227.69;;;22.75;54.24
46347;BME280;32057;47.830;19.046;2023-05-07T11:26:15;100231.63;;;22.90;55.50
46347;BME280;32057;47.830;19.046;2023-05-07T11:28:42;100231.72;;;22.86;55.79
46347;BME280;32057;47.830;19.046;2023-05-07T11:31:08;100239.03;;;22.50;57.22
46347;BME280;32057;47.830;19.046;2023-05-07T11:33:35;100234.53;;;21.58;57.27
46347;BME280;32057;47.830;19.046;2023-05-07T11:36:02;100241.66;;;21.56;58.05
46347;BME280;32057;47.830;19.046;2023-05-07T11:38:29;100234.38;;;21.64;57.18
46347;BME280;32057;47.830;19.046;2023-05-07T11:40:59;100235.91;;;22.04;60.82
46347;BME280;32057;47.830;19.046;2023-05-07T11:43:30;100234.06;;;22.39;58.35
46347;BME280;32057;47.830;19.046;2023-05-07T11:48:32;100230.72;;;22.91;55.13
46347;BME280;32057;47.830;19.046;2023-05-07T11:53:28;100212.97;;;22.93;55.72
46347;BME280;32057;47.830;19.046;2023-05-07T11:55:56;100220.28;;;22.84;56.03
46347;BME280;32057;47.830;19.046;2023-05-07T11:58:25;100221.81;;;22.65;56.20
46347;BME280;32057;47.830;19.046;2023-05-07T12:00:52;100225.47;;;22.61;55.83
46347;BME280;32057;47.830;19.046;2023-05-07T12:03:17;100219.03;;;22.68;57.01
46347;BME280;32057;47.830;19.046;2023-05-07T12:05:44;100217.31;;;22.95;54.45
46347;BME280;32057;47.830;19.046;2023-05-07T12:08:20;100224.88;;;23.08;53.80
46347;BME280;32057;47.830;19.046;2023-05-07T12:10:49;100227.16;;;22.63;58.04
46347;BME280;32057;47.830;19.046;2023-05-07T12:13:20;100228.75;;;22.69;56.30
46347;BME280;32057;47.830;19.046;2023-05-07T12:15:45;100224.56;;;22.32;55.91
46347;BME280;32057;47.830;19.046;2023-05-07T12:18:12;100228.59;;;22.45;57.15
46347;BME280;32057;47.830;19.046;2023-05-07T12:20:38;100225.84;;;22.17;56.49
46347;BME280;32057;47.830;19.046;2023-05-07T12:23:04;100226.56;;;22.24;53.95
46347;BME280;32057;47.830;19.046;2023-05-07T12:25:40;100218.59;;;21.93;54.21
46347;BME280;32057;47.830;19.046;2023-05-07T12:28:15;100218.75;;;22.18;54.29
46347;BME280;32057;47.830;19.046;2023-05-07T12:30:42;100221.25;;;22.24;52.76
46347;BME280;32057;47.830;19.046;2023-05-07T12:33:08;100211.63;;;21.57;53.12
46347;BME280;32057;47.830;19.046;2023-05-07T12:35:41;100219.00;;;21.46;56.10
46347;BME280;32057;47.830;19.046;2023-05-07T12:38:12;100226.19;;;21.74;54.46
46347;BME280;32057;47.830;19.046;2023-05-07T12:40:43;100219.38;;;21.65;54.75
46347;BME280;32057;47.830;19.046;2023-05-07T12:43:15;100221.63;;;22.10;54.55
46347;BME280;32057;47.830;19.046;2023-05-07T12:45:42;100215.50;;;22.39;54.85
46347;BME280;32057;47.830;19.046;2023-05-07T12:48:09;100223.69;;;22.00;53.78
46347;BME280;32057;47.830;19.046;2023-05-07T12:50:35;100226.06;;;22.10;55.12